North Bellmore, New York
Current Conditions -  °F | °C
As of 10:53 AM on Wednesday 22 Oct 2014 (Local Time) from KFRG Reporting Station
Overcast Overcast  
Wind Chill: 55°   Ceiling: 1400
Heat Index: 55°   Visibility: 10mi
Dew Point: 52°   Wind: 12mph
Humidity: 89%   Direction: 30°NNE
Pressure: 29.91"   Gusts: NA
Location:  40.69°N, 73.53°W
Report Text: KFRG 221453Z 03010KT 10SM OVC014 13/11 A2991 RMK AO2 RAE31 SLP129 P0001 60022 T01280111 50004
Loading
Personal Weather Stations






























Interactive Weather Map
Tropical Storm Tracking
New forecast layout! Learn more

10-Day Weather Forecast

Advertisements
Track Severe Weather on mobile